Time;durP1;ratioP1;P1;durP2;ratioP2;P2;SDS_P1;SDS_P2;PMS_P1;PMS_P2;Temp;Humidity;BMP_temperature;BMP_pressure;BME280_temperature;BME280_humidity;BME280_pressure;Samples;Min_cycle;Max_cycle;Signal;HPM_P1;HPM_P2
2023/08/09 00:01:26;;;;;;;;;;;;;;;15.39;46.78;100367.06;4884812;28;98173;-78
2023/08/09 00:03:52;;;;;;;;;;;;;;;15.36;46.97;100361.44;4878594;28;99864;-78
2023/08/09 00:06:20;;;;;;;;;;;;;;;15.32;46.98;100361.22;4880209;28;99163;-69
2023/08/09 00:08:48;;;;;;;;;;;;;;;15.28;46.80;100356.72;4887310;28;98003;-77
2023/08/09 00:11:15;;;;;;;;;;;;;;;15.24;46.83;100345.66;4883351;28;98161;-69
2023/08/09 00:13:42;;;;;;;;;;;;;;;15.18;46.96;100347.66;4882469;28;98154;-68
2023/08/09 00:16:11;;;;;;;;;;;;;;;15.15;46.92;100334.69;4900037;28;98245;-68
2023/08/09 00:18:38;;;;;;;;;;;;;;;15.13;46.97;100336.09;4903842;28;98816;-69
2023/08/09 00:21:05;;;;;;;;;;;;;;;15.10;46.87;100340.22;4866688;28;98202;-77
2023/08/09 00:23:33;;;;;;;;;;;;;;;15.06;46.87;100332.97;4886801;28;98411;-69
2023/08/09 00:26:00;;;;;;;;;;;;;;;15.04;46.85;100332.47;4884486;28;99659;-77
2023/08/09 00:28:27;;;;;;;;;;;;;;;15.01;46.91;100325.72;4901505;28;98470;-77
2023/08/09 00:30:55;;;;;;;;;;;;;;;14.98;46.95;100329.84;4915362;28;98356;-69
2023/08/09 00:33:22;;;;;;;;;;;;;;;14.95;46.80;100330.44;4885662;28;98177;-78
2023/08/09 00:35:49;;;;;;;;;;;;;;;14.94;46.87;100333.47;4904907;28;98354;-69
2023/08/09 00:38:16;;;;;;;;;;;;;;;14.92;46.91;100330.25;4861834;28;99941;-78
2023/08/09 00:40:44;;;;;;;;;;;;;;;14.90;46.82;100327.84;4901031;28;98068;-68
2023/08/09 00:43:11;;;;;;;;;;;;;;;14.89;46.79;100328.13;4900856;28;100560;-77
2023/08/09 00:45:38;;;;;;;;;;;;;;;14.87;47.03;100335.75;4885974;28;99578;-77
2023/08/09 00:48:05;;;;;;;;;;;;;;;14.84;47.16;100326.31;4862425;28;98274;-69
2023/08/09 00:50:31;;;;;;;;;;;;;;;14.83;47.16;100323.91;4887701;28;98271;-69
2023/08/09 00:52:57;;;;;;;;;;;;;;;14.81;46.91;100323.38;4903597;28;98081;-69
2023/08/09 00:55:24;;;;;;;;;;;;;;;14.78;46.99;100322.09;4889309;28;98059;-69
2023/08/09 00:57:51;;;;;;;;;;;;;;;14.77;47.03;100327.78;4901811;28;98345;-69
2023/08/09 01:00:18;;;;;;;;;;;;;;;14.75;46.91;100330.03;4871499;28;98549;-77
2023/08/09 01:02:45;;;;;;;;;;;;;;;14.73;46.87;100322.16;4885229;28;98931;-77
2023/08/09 01:05:11;;;;;;;;;;;;;;;14.71;47.06;100319.75;4885448;28;98032;-69
2023/08/09 01:07:56;;;;;;;;;;;;;;;14.69;47.36;100324.66;4903827;28;98343;-69
2023/08/09 01:10:31;;;;;;;;;;;;;;;14.68;47.08;100317.63;4936623;28;98099;-77
2023/08/09 01:13:04;;;;;;;;;;;;;;;14.67;46.94;100321.44;4896520;28;98269;-69
2023/08/09 01:15:34;;;;;;;;;;;;;;;14.67;46.93;100328.78;4897569;28;98721;-77
2023/08/09 01:18:01;;;;;;;;;;;;;;;14.65;47.16;100312.78;4901336;28;99639;-69
2023/08/09 01:20:30;;;;;;;;;;;;;;;14.64;47.00;100323.94;4898913;28;98134;-69
2023/08/09 01:23:04;;;;;;;;;;;;;;;14.60;46.91;100317.50;4923282;28;98271;-77
2023/08/09 01:25:34;;;;;;;;;;;;;;;14.61;47.19;100321.81;4899046;28;98368;-69
2023/08/09 01:28:03;;;;;;;;;;;;;;;14.61;46.88;100322.63;4884568;28;98216;-69
2023/08/09 01:30:32;;;;;;;;;;;;;;;14.61;47.20;100325.34;4921433;28;99710;-69
2023/08/09 01:33:00;;;;;;;;;;;;;;;14.62;46.91;100320.72;4902632;28;98031;-77
2023/08/09 01:35:26;;;;;;;;;;;;;;;14.61;47.20;100324.53;4918158;28;98026;-78
2023/08/09 01:37:54;;;;;;;;;;;;;;;14.62;46.96;100315.28;4905977;28;98736;-77
2023/08/09 01:40:22;;;;;;;;;;;;;;;14.63;46.90;100308.78;4902567;28;98251;-78
2023/08/09 01:42:51;;;;;;;;;;;;;;;14.63;47.25;100311.50;4904392;28;99411;-78
2023/08/09 01:45:19;;;;;;;;;;;;;;;14.61;46.97;100314.50;4920973;28;98011;-70
2023/08/09 01:47:46;;;;;;;;;;;;;;;14.61;46.81;100319.13;4887496;28;100960;-70
2023/08/09 01:50:23;;;;;;;;;;;;;;;14.60;47.08;100321.03;4888160;28;97962;-70
2023/08/09 01:52:49;;;;;;;;;;;;;;;14.60;46.85;100325.66;4882855;28;100739;-78
2023/08/09 01:55:17;;;;;;;;;;;;;;;14.60;46.89;100321.03;4903928;28;98619;-69
2023/08/09 01:57:45;;;;;;;;;;;;;;;14.61;47.21;100321.81;4895693;28;98544;-70
2023/08/09 02:00:16;;;;;;;;;;;;;;;14.60;47.19;100323.75;4887496;28;98134;-70
2023/08/09 02:02:44;;;;;;;;;;;;;;;14.61;47.20;100322.63;4874099;28;97977;-69
2023/08/09 02:05:11;;;;;;;;;;;;;;;14.63;47.01;100322.34;4866323;28;98069;-78
2023/08/09 02:07:39;;;;;;;;;;;;;;;14.63;47.32;100315.00;4873086;28;98606;-70
2023/08/09 02:10:10;;;;;;;;;;;;;;;14.65;47.27;100306.56;4915490;28;98316;-70
2023/08/09 02:12:37;;;;;;;;;;;;;;;14.65;47.30;100312.78;4870755;28;98416;-69
2023/08/09 02:15:04;;;;;;;;;;;;;;;14.64;47.05;100299.53;4920567;28;98558;-70
2023/08/09 02:17:31;;;;;;;;;;;;;;;14.63;46.90;100295.22;4910590;28;98025;-78
2023/08/09 02:19:59;;;;;;;;;;;;;;;14.63;47.31;100292.50;4895273;28;98093;-69
2023/08/09 02:22:26;;;;;;;;;;;;;;;14.64;46.89;100288.69;4891346;28;98202;-78
2023/08/09 02:24:54;;;;;;;;;;;;;;;14.64;47.13;100292.22;4898461;28;98914;-78
2023/08/09 02:27:20;;;;;;;;;;;;;;;14.66;47.11;100292.72;4871484;28;99993;-78
2023/08/09 02:29:48;;;;;;;;;;;;;;;14.67;46.94;100283.47;4937180;28;98152;-70
2023/08/09 02:32:14;;;;;;;;;;;;;;;14.66;47.32;100279.16;4913283;28;99269;-69
2023/08/09 02:34:42;;;;;;;;;;;;;;;14.66;46.88;100273.75;4880341;28;98803;-70
2023/08/09 02:37:10;;;;;;;;;;;;;;;14.65;46.89;100277.53;4936080;28;97892;-78
2023/08/09 02:39:37;;;;;;;;;;;;;;;14.65;47.24;100277.53;4875222;28;98206;-78
2023/08/09 02:42:04;;;;;;;;;;;;;;;14.66;47.07;100270.22;4903664;28;98886;-77
2023/08/09 02:44:32;;;;;;;;;;;;;;;14.66;46.88;100267.50;4887027;28;98294;-69
2023/08/09 02:47:00;;;;;;;;;;;;;;;14.65;46.95;100272.09;4902913;28;100335;-69
2023/08/09 02:49:26;;;;;;;;;;;;;;;14.68;47.02;100268.81;4860302;28;97889;-77
2023/08/09 02:51:54;;;;;;;;;;;;;;;14.71;47.29;100261.97;4885655;28;98504;-78
2023/08/09 02:54:20;;;;;;;;;;;;;;;14.72;47.21;100261.66;4915569;28;98188;-77
2023/08/09 02:56:47;;;;;;;;;;;;;;;14.73;47.09;100263.28;4889182;28;98665;-77
2023/08/09 02:59:14;;;;;;;;;;;;;;;14.73;47.35;100262.47;4873646;28;98125;-69
2023/08/09 03:01:41;;;;;;;;;;;;;;;14.75;46.93;100264.91;4897473;28;98656;-77
2023/08/09 03:04:08;;;;;;;;;;;;;;;14.72;47.00;100267.09;4895500;28;98607;-77
2023/08/09 03:06:34;;;;;;;;;;;;;;;14.73;47.03;100259.75;4898400;28;98239;-69
2023/08/09 03:09:02;;;;;;;;;;;;;;;14.75;46.91;100256.75;4912688;28;98948;-70
2023/08/09 03:11:28;;;;;;;;;;;;;;;14.76;46.97;100259.16;4878798;28;98077;-78
2023/08/09 03:13:55;;;;;;;;;;;;;;;14.77;47.36;100254.53;4901913;28;98472;-77
2023/08/09 03:16:22;;;;;;;;;;;;;;;14.80;47.13;100262.09;4918270;28;99322;-70
2023/08/09 03:18:49;;;;;;;;;;;;;;;14.80;46.97;100265.59;4903120;28;98241;-70
2023/08/09 03:21:15;;;;;;;;;;;;;;;14.81;47.26;100267.19;4900101;28;98326;-78
2023/08/09 03:23:43;;;;;;;;;;;;;;;14.81;46.89;100264.50;4900640;28;98472;-71
2023/08/09 03:26:10;;;;;;;;;;;;;;;14.81;47.12;100267.19;4916302;28;100321;-72
2023/08/09 03:28:37;;;;;;;;;;;;;;;14.82;47.12;100270.75;4889609;28;98479;-78
2023/08/09 03:31:03;;;;;;;;;;;;;;;14.82;47.21;100271.53;4920654;28;98513;-78
2023/08/09 03:33:30;;;;;;;;;;;;;;;14.84;47.13;100279.38;4918787;28;99127;-70
2023/08/09 03:35:56;;;;;;;;;;;;;;;14.84;47.12;100280.19;4886943;28;97911;-70
2023/08/09 03:38:23;;;;;;;;;;;;;;;14.82;47.19;100293.25;4886921;28;98545;-78
2023/08/09 03:40:50;;;;;;;;;;;;;;;14.84;47.11;100295.66;4904098;28;98159;-77
2023/08/09 03:43:17;;;;;;;;;;;;;;;14.83;47.27;100299.47;4903087;28;98591;-70
2023/08/09 03:45:44;;;;;;;;;;;;;;;14.82;47.22;100300.59;4912875;28;98227;-71
2023/08/09 03:48:11;;;;;;;;;;;;;;;14.81;47.34;100297.03;4904079;28;99754;-77
2023/08/09 03:50:37;;;;;;;;;;;;;;;14.81;47.07;100309.81;4894687;28;98059;-72
2023/08/09 03:53:04;;;;;;;;;;;;;;;14.80;47.19;100306.31;4873045;28;98327;-72
2023/08/09 03:55:31;;;;;;;;;;;;;;;14.80;47.30;100303.59;4893743;28;100569;-75
2023/08/09 03:57:59;;;;;;;;;;;;;;;14.81;47.04;100307.09;4899103;28;98723;-75
2023/08/09 04:00:27;;;;;;;;;;;;;;;14.81;47.13;100315.25;4900131;28;99793;-75
2023/08/09 04:02:53;;;;;;;;;;;;;;;14.79;47.31;100318.25;4916745;28;98595;-73
2023/08/09 04:05:20;;;;;;;;;;;;;;;14.79;47.46;100312.84;4904242;28;98225;-73
2023/08/09 04:07:47;;;;;;;;;;;;;;;14.79;47.23;100309.31;4875746;28;98652;-73
2023/08/09 04:10:14;;;;;;;;;;;;;;;14.79;47.23;100320.19;4904362;28;99012;-76
2023/08/09 04:12:42;;;;;;;;;;;;;;;14.77;47.45;100325.88;4894959;28;98816;-76
2023/08/09 04:15:10;;;;;;;;;;;;;;;14.77;47.45;100323.16;4873331;28;98455;-76
2023/08/09 04:17:36;;;;;;;;;;;;;;;14.77;47.43;100336.72;4909759;28;100049;-74
2023/08/09 04:20:09;;;;;;;;;;;;;;;14.76;47.40;100340.56;4890125;28;97998;-77
2023/08/09 04:22:38;;;;;;;;;;;;;;;14.75;47.49;100344.38;4922883;28;98259;-76
2023/08/09 04:25:05;;;;;;;;;;;;;;;14.73;47.47;100349.28;4892771;28;98601;-73
2023/08/09 04:27:33;;;;;;;;;;;;;;;14.72;47.14;100353.09;4912787;28;98311;-76
2023/08/09 04:30:03;;;;;;;;;;;;;;;14.71;47.21;100349.59;4906886;28;98048;-73
2023/08/09 04:32:32;;;;;;;;;;;;;;;14.71;47.33;100355.03;4918411;28;98281;-73
2023/08/09 04:35:00;;;;;;;;;;;;;;;14.71;47.56;100360.44;4908256;28;98073;-75
2023/08/09 04:37:28;;;;;;;;;;;;;;;14.73;47.62;100357.44;4884842;28;98582;-74
2023/08/09 04:39:55;;;;;;;;;;;;;;;14.73;47.62;100369.06;4922759;28;98572;-74
2023/08/09 04:42:22;;;;;;;;;;;;;;;14.71;47.37;100368.59;4880751;28;98496;-75
2023/08/09 04:44:50;;;;;;;;;;;;;;;14.71;47.14;100376.72;4921224;28;98314;-73
2023/08/09 04:47:17;;;;;;;;;;;;;;;14.71;47.49;100378.63;4922788;28;115749;-73
2023/08/09 04:49:43;;;;;;;;;;;;;;;14.70;47.52;100387.88;4905326;28;97873;-76
2023/08/09 04:52:09;;;;;;;;;;;;;;;14.70;47.34;100383.25;4901182;28;98100;-73
2023/08/09 04:54:37;;;;;;;;;;;;;;;14.68;47.60;100385.44;4918477;28;98079;-75
2023/08/09 04:57:05;;;;;;;;;;;;;;;14.67;47.46;100392.00;4905268;28;97918;-76
2023/08/09 04:59:32;;;;;;;;;;;;;;;14.66;47.37;100397.72;4914142;28;98712;-73
2023/08/09 05:01:59;;;;;;;;;;;;;;;14.67;47.45;100402.03;4873187;28;98153;-73
2023/08/09 05:04:26;;;;;;;;;;;;;;;14.67;47.39;100402.03;4892769;28;100234;-76
2023/08/09 05:06:53;;;;;;;;;;;;;;;14.67;47.48;100399.31;4905425;28;98163;-73
2023/08/09 05:09:19;;;;;;;;;;;;;;;14.67;47.31;100396.59;4901732;28;97978;-74
2023/08/09 05:11:45;;;;;;;;;;;;;;;14.67;47.65;100402.84;4871354;28;98376;-73
2023/08/09 05:14:12;;;;;;;;;;;;;;;14.69;47.67;100394.38;4905728;28;98360;-75
2023/08/09 05:16:41;;;;;;;;;;;;;;;14.71;47.29;100390.28;4898378;28;100555;-75
2023/08/09 05:19:08;;;;;;;;;;;;;;;14.71;47.37;100378.63;4872059;28;98204;-75
2023/08/09 05:21:35;;;;;;;;;;;;;;;14.67;47.61;100359.44;4889931;28;98501;-75
2023/08/09 05:24:02;;;;;;;;;;;;;;;14.57;47.37;100369.63;4921458;28;98452;-75
2023/08/09 05:26:28;;;;;;;;;;;;;;;14.51;47.71;100416.94;4905899;28;98223;-75
2023/08/09 05:28:56;;;;;;;;;;;;;;;14.49;47.52;100417.22;4906050;28;99989;-76
2023/08/09 05:31:22;;;;;;;;;;;;;;;14.50;47.72;100405.25;4906576;28;99307;-74
2023/08/09 05:33:51;;;;;;;;;;;;;;;14.49;47.76;100403.66;4890793;28;98409;-75
2023/08/09 05:36:19;;;;;;;;;;;;;;;14.48;47.39;100380.31;4898264;28;99029;-74
2023/08/09 05:38:45;;;;;;;;;;;;;;;14.43;47.76;100343.25;4873256;28;98282;-74
2023/08/09 05:41:13;;;;;;;;;;;;;;;14.36;47.53;100334.69;4892982;28;98056;-75
2023/08/09 05:43:39;;;;;;;;;;;;;;;14.30;47.91;100348.59;4924590;28;99754;-75
2023/08/09 05:46:06;;;;;;;;;;;;;;;14.26;47.60;100353.81;4894466;28;100215;-74
2023/08/09 05:48:33;;;;;;;;;;;;;;;14.22;47.65;100356.31;4910316;28;99260;-74
2023/08/09 05:51:00;;;;;;;;;;;;;;;14.22;47.88;100350.88;4904405;28;98165;-76
2023/08/09 05:53:27;;;;;;;;;;;;;;;14.23;47.64;100362.56;4885273;28;98865;-78
2023/08/09 05:55:54;;;;;;;;;;;;;;;14.25;47.40;100341.34;4886179;28;98573;-74
2023/08/09 05:58:22;;;;;;;;;;;;;;;14.26;47.90;100315.84;4868227;28;98535;-76
2023/08/09 06:00:52;;;;;;;;;;;;;;;14.23;47.92;100302.91;4902724;28;98262;-74
2023/08/09 06:03:20;;;;;;;;;;;;;;;14.19;47.44;100296.47;4871005;28;98619;-76
2023/08/09 06:05:49;;;;;;;;;;;;;;;14.23;47.51;100292.06;4897685;28;98116;-75
2023/08/09 06:08:15;;;;;;;;;;;;;;;14.21;47.41;100288.84;4887332;28;99511;-74
2023/08/09 06:10:42;;;;;;;;;;;;;;;14.21;47.57;100278.78;4895546;28;98773;-75
2023/08/09 06:13:11;;;;;;;;;;;;;;;14.22;47.63;100285.81;4896608;28;98218;-74
2023/08/09 06:15:40;;;;;;;;;;;;;;;14.19;47.56;100293.75;4897478;28;101030;-76
2023/08/09 06:18:07;;;;;;;;;;;;;;;14.16;47.75;100297.84;4862037;28;98372;-75
2023/08/09 06:20:34;;;;;;;;;;;;;;;14.17;47.80;100298.66;4876429;28;98328;-76
2023/08/09 06:23:01;;;;;;;;;;;;;;;14.21;47.92;100308.59;4917181;28;98496;-76
2023/08/09 06:25:28;;;;;;;;;;;;;;;14.25;47.69;100303.41;4892452;28;98498;-73
2023/08/09 06:27:57;;;;;;;;;;;;;;;14.33;47.39;100315.50;4899764;28;99151;-75
2023/08/09 06:30:24;;;;;;;;;;;;;;;14.45;47.30;100345.66;4894178;28;98072;-73
2023/08/09 06:32:51;;;;;;;;;;;;;;;14.57;47.23;100354.16;4876653;28;98333;-75
2023/08/09 06:35:19;;;;;;;;;;;;;;;14.71;47.14;100373.22;4874064;28;98673;-75
2023/08/09 06:37:47;;;;;;;;;;;;;;;14.72;47.32;100375.63;4923920;28;98405;-75
2023/08/09 06:40:16;;;;;;;;;;;;;;;14.73;47.57;100366.38;4901342;28;100660;-75
2023/08/09 06:42:42;;;;;;;;;;;;;;;14.81;47.66;100377.66;4889169;28;97997;-74
2023/08/09 06:45:09;;;;;;;;;;;;;;;14.84;47.30;100409.63;4897700;28;98709;-75
2023/08/09 06:47:36;;;;;;;;;;;;;;;14.82;47.45;100412.66;4864428;28;99417;-75
2023/08/09 06:50:06;;;;;;;;;;;;;;;14.94;47.61;100414.88;4883444;28;99720;-75
2023/08/09 06:52:36;;;;;;;;;;;;;;;15.13;47.27;100412.09;4900095;28;98294;-76
2023/08/09 06:55:03;;;;;;;;;;;;;;;15.29;46.95;100401.75;4900699;28;98711;-75
2023/08/09 06:57:30;;;;;;;;;;;;;;;15.38;46.97;100408.94;4897897;28;98962;-76
2023/08/09 06:59:56;;;;;;;;;;;;;;;15.57;47.00;100416.19;4868384;28;98268;-75
2023/08/09 07:02:23;;;;;;;;;;;;;;;15.80;46.67;100407.06;4874873;28;110049;-74
2023/08/09 07:04:57;;;;;;;;;;;;;;;15.86;46.71;100410.47;4883653;28;98656;-75
2023/08/09 07:07:23;;;;;;;;;;;;;;;15.92;46.68;100407.34;4866665;28;101758;-73
2023/08/09 07:09:52;;;;;;;;;;;;;;;16.12;46.54;100413.44;4896133;28;98339;-76
2023/08/09 07:12:22;;;;;;;;;;;;;;;16.47;46.27;100414.56;4895051;28;100658;-74
2023/08/09 07:14:50;;;;;;;;;;;;;;;16.86;45.99;100411.19;4896346;28;99729;-74
2023/08/09 07:17:19;;;;;;;;;;;;;;;17.10;45.72;100408.13;4913923;28;98414;-76
2023/08/09 07:19:46;;;;;;;;;;;;;;;17.94;44.99;100406.38;4884998;28;98184;-75
2023/08/09 07:22:16;;;;;;;;;;;;;;;18.44;44.55;100421.53;4899772;28;98426;-74
2023/08/09 07:24:42;;;;;;;;;;;;;;;18.43;44.99;100417.16;4915825;28;98794;-75
2023/08/09 07:27:10;;;;;;;;;;;;;;;18.75;44.96;100421.38;4903458;28;99405;-76
2023/08/09 07:29:36;;;;;;;;;;;;;;;19.79;43.83;100412.84;4899216;28;98357;-73
2023/08/09 07:32:02;;;;;;;;;;;;;;;20.52;43.24;100423.50;4885663;28;98385;-73
2023/08/09 07:34:29;;;;;;;;;;;;;;;20.72;43.44;100435.56;4894517;28;100498;-73
2023/08/09 07:36:55;;;;;;;;;;;;;;;21.49;43.02;100424.91;4882449;28;98210;-73
2023/08/09 07:39:25;;;;;;;;;;;;;;;21.52;43.44;100430.53;4887115;28;97924;-76
2023/08/09 07:41:52;;;;;;;;;;;;;;;22.66;42.20;100432.44;4889187;28;98498;-76
2023/08/09 07:44:19;;;;;;;;;;;;;;;23.42;41.78;100436.88;4913268;28;98640;-76
2023/08/09 07:46:45;;;;;;;;;;;;;;;24.49;40.83;100433.88;4884433;28;99276;-73
2023/08/09 07:49:12;;;;;;;;;;;;;;;25.01;40.92;100444.72;4880261;28;98072;-73
2023/08/09 07:51:38;;;;;;;;;;;;;;;25.71;40.82;100449.88;4896963;28;98889;-77
2023/08/09 07:54:05;;;;;;;;;;;;;;;26.31;40.65;100451.97;4885080;28;98248;-73
2023/08/09 07:56:31;;;;;;;;;;;;;;;27.32;39.71;100449.22;4917019;28;98214;-73
2023/08/09 07:58:58;;;;;;;;;;;;;;;28.12;39.42;100458.56;4899935;28;99482;-72
2023/08/09 08:01:25;;;;;;;;;;;;;;;28.84;39.14;100464.44;4881502;28;98448;-76
2023/08/09 08:03:51;;;;;;;;;;;;;;;29.70;38.99;100461.84;4899388;28;98474;-78
2023/08/09 08:06:18;;;;;;;;;;;;;;;30.65;38.29;100456.44;4881976;28;99590;-77
2023/08/09 08:08:45;;;;;;;;;;;;;;;30.79;38.81;100462.78;4897269;28;98309;-72
2023/08/09 08:11:13;;;;;;;;;;;;;;;31.41;38.68;100460.44;4861416;28;98538;-72
2023/08/09 08:13:39;;;;;;;;;;;;;;;29.27;41.44;100473.69;4912906;28;98267;-73
2023/08/09 08:16:07;;;;;;;;;;;;;;;27.69;43.23;100464.94;4916989;28;98396;-77
2023/08/09 08:18:34;;;;;;;;;;;;;;;26.44;44.09;100467.94;4881523;28;98474;-77
2023/08/09 08:21:01;;;;;;;;;;;;;;;25.56;44.69;100468.16;4893371;28;98221;-71
2023/08/09 08:23:28;;;;;;;;;;;;;;;26.17;43.40;100466.38;4882940;28;98224;-72
2023/08/09 08:25:55;;;;;;;;;;;;;;;29.33;39.71;100474.09;4884321;28;102343;-71
2023/08/09 08:28:22;;;;;;;;;;;;;;;30.04;39.69;100481.66;4881790;28;98302;-71
2023/08/09 08:30:49;;;;;;;;;;;;;;;27.95;42.32;100478.63;4889884;28;98141;-71
2023/08/09 08:33:17;;;;;;;;;;;;;;;27.17;43.34;100482.28;4880225;28;101003;-72
2023/08/09 08:35:48;;;;;;;;;;;;;;;26.25;44.05;100473.59;4898602;28;98405;-71
2023/08/09 08:38:16;;;;;;;;;;;;;;;25.58;44.46;100476.88;4913688;28;99141;-71
2023/08/09 08:40:43;;;;;;;;;;;;;;;25.30;44.62;100473.63;4900055;28;98553;-72
2023/08/09 08:43:10;;;;;;;;;;;;;;;25.69;43.76;100479.81;4868987;28;100017;-71
2023/08/09 08:45:38;;;;;;;;;;;;;;;28.55;40.50;100480.19;4913403;28;98353;-76
2023/08/09 08:48:12;;;;;;;;;;;;;;;30.60;38.50;100488.25;4901049;28;98098;-72
2023/08/09 08:50:39;;;;;;;;;;;;;;;32.13;37.87;100494.03;4892580;28;98217;-71
2023/08/09 08:53:05;;;;;;;;;;;;;;;31.40;38.97;100498.63;4895094;28;98507;-72
2023/08/09 08:55:32;;;;;;;;;;;;;;;31.46;39.18;100499.75;4913152;28;97907;-72
2023/08/09 08:57:59;;;;;;;;;;;;;;;29.13;42.47;100497.84;4894431;28;98246;-76
2023/08/09 09:00:25;;;;;;;;;;;;;;;27.93;43.59;100505.09;4886835;28;99169;-71
2023/08/09 09:02:53;;;;;;;;;;;;;;;27.12;43.83;100504.75;4900301;28;98195;-71
2023/08/09 09:05:19;;;;;;;;;;;;;;;30.49;39.71;100498.63;4898624;28;98891;-78
2023/08/09 09:07:50;;;;;;;;;;;;;;;31.92;38.22;100506.97;4888857;28;98344;-77
2023/08/09 09:10:21;;;;;;;;;;;;;;;34.13;36.79;100514.38;4886935;28;98600;-77
2023/08/09 09:12:53;;;;;;;;;;;;;;;33.18;38.72;100512.69;4918952;28;98202;-77
2023/08/09 09:15:24;;;;;;;;;;;;;;;34.52;37.24;100510.06;4899684;28;98589;-70
2023/08/09 09:17:51;;;;;;;;;;;;;;;34.59;37.51;100511.94;4923551;28;98778;-70
2023/08/09 09:20:27;;;;;;;;;;;;;;;36.27;36.00;100519.19;4918852;28;101997;-77
2023/08/09 09:22:54;;;;;;;;;;;;;;;37.42;35.45;100514.63;4914682;28;98520;-71
2023/08/09 09:25:22;;;;;;;;;;;;;;;35.60;37.66;100502.91;4885370;28;99388;-77
2023/08/09 09:27:54;;;;;;;;;;;;;;;34.82;38.64;100505.44;4901521;28;98172;-79
2023/08/09 09:30:24;;;;;;;;;;;;;;;33.54;39.81;100506.59;4898042;28;99407;-77
2023/08/09 09:32:57;;;;;;;;;;;;;;;34.49;38.87;100510.94;4915361;28;98525;-77
2023/08/09 09:35:28;;;;;;;;;;;;;;;35.35;38.13;100509.88;4904787;28;98289;-70
2023/08/09 09:37:56;;;;;;;;;;;;;;;36.19;37.46;100515.00;4900422;28;98673;-70
2023/08/09 09:40:30;;;;;;;;;;;;;;;32.85;41.59;100508.72;4901008;28;100457;-78
2023/08/09 09:42:57;;;;;;;;;;;;;;;32.97;40.72;100505.44;4916931;28;99971;-69
2023/08/09 09:45:25;;;;;;;;;;;;;;;33.44;40.02;100504.72;4899511;28;98521;-70
2023/08/09 09:47:53;;;;;;;;;;;;;;;35.60;37.34;100509.28;4912041;28;98329;-69
2023/08/09 09:50:25;;;;;;;;;;;;;;;37.76;35.42;100515.91;4912623;28;98410;-69
2023/08/09 09:52:53;;;;;;;;;;;;;;;39.43;34.47;100519.44;4894596;28;98126;-69
2023/08/09 09:55:25;;;;;;;;;;;;;;;39.79;34.98;100515.94;4901319;28;98410;-78
2023/08/09 09:57:56;;;;;;;;;;;;;;;39.50;35.29;100517.13;4916668;28;98176;-77
2023/08/09 10:00:25;;;;;;;;;;;;;;;38.77;36.55;100519.56;4883933;28;98107;-78
2023/08/09 10:02:52;;;;;;;;;;;;;;;40.72;34.44;100509.03;4862623;28;99795;-69
2023/08/09 10:05:40;;;;;;;;;;;;;;;41.82;33.82;100517.03;4904994;28;98182;-78
2023/08/09 10:08:08;;;;;;;;;;;;;;;42.27;34.08;100508.66;4886513;28;98528;-69
2023/08/09 10:10:35;;;;;;;;;;;;;;;42.48;33.95;100512.38;4882578;28;98732;-69
2023/08/09 10:13:04;;;;;;;;;;;;;;;40.73;35.70;100504.94;4871555;28;98251;-78
2023/08/09 10:15:39;;;;;;;;;;;;;;;37.43;39.07;100499.34;4900504;28;98149;-79
2023/08/09 10:18:29;;;;;;;;;;;;;;;36.17;40.14;100498.63;4897165;28;98151;-69
2023/08/09 10:20:55;;;;;;;;;;;;;;;33.87;42.07;100499.25;4902870;28;98287;-70
2023/08/09 10:23:23;;;;;;;;;;;;;;;36.83;38.13;100499.19;4884429;28;99633;-79
2023/08/09 10:25:51;;;;;;;;;;;;;;;38.16;36.66;100506.91;4876445;28;98640;-79
2023/08/09 10:28:19;;;;;;;;;;;;;;;39.16;36.00;100500.38;4895522;28;98264;-69
2023/08/09 10:30:51;;;;;;;;;;;;;;;39.73;35.76;100504.50;4878214;28;98869;-69
2023/08/09 10:33:20;;;;;;;;;;;;;;;40.21;35.38;100504.06;4884507;28;98218;-69
2023/08/09 10:35:54;;;;;;;;;;;;;;;40.69;35.31;100498.69;4902232;28;98144;-69
2023/08/09 10:38:32;;;;;;;;;;;;;;;41.02;35.23;100506.44;4877657;28;98357;-69
2023/08/09 10:41:06;;;;;;;;;;;;;;;41.33;34.74;100504.06;4907504;28;98811;-78
2023/08/09 10:43:33;;;;;;;;;;;;;;;40.59;36.22;100500.72;4900667;28;98486;-78
2023/08/09 10:46:17;;;;;;;;;;;;;;;41.80;35.12;100505.38;4875898;28;98360;-68
2023/08/09 10:48:54;;;;;;;;;;;;;;;39.87;36.86;100493.84;4879549;28;98038;-78
2023/08/09 10:51:22;;;;;;;;;;;;;;;40.88;35.71;100502.22;4896821;28;99582;-68
2023/08/09 10:53:56;;;;;;;;;;;;;;;40.13;36.45;100500.78;4884894;28;98404;-78
2023/08/09 10:56:33;;;;;;;;;;;;;;;36.25;40.74;100493.63;4893617;28;98233;-78
2023/08/09 10:59:06;;;;;;;;;;;;;;;39.15;36.85;100499.59;4861770;28;98717;-79
2023/08/09 11:01:36;;;;;;;;;;;;;;;39.64;36.14;100503.66;4896612;28;98160;-69
2023/08/09 11:04:13;;;;;;;;;;;;;;;39.78;36.03;100513.59;4883558;28;97993;-78
2023/08/09 11:06:45;;;;;;;;;;;;;;;40.10;35.97;100512.19;4892748;28;98587;-68
2023/08/09 11:09:14;;;;;;;;;;;;;;;40.54;35.71;100503.38;4877297;28;98289;-78
2023/08/09 11:11:42;;;;;;;;;;;;;;;40.78;35.18;100504.28;4916202;28;98163;-78
2023/08/09 11:14:10;;;;;;;;;;;;;;;40.73;35.58;100502.13;4898041;28;100094;-68
2023/08/09 11:16:37;;;;;;;;;;;;;;;40.75;35.41;100504.44;4898820;28;99020;-78
2023/08/09 11:19:10;;;;;;;;;;;;;;;40.69;35.48;100502.28;4902679;28;98323;-68
2023/08/09 11:21:41;;;;;;;;;;;;;;;40.52;35.81;100495.41;4879431;28;98805;-78
2023/08/09 11:24:13;;;;;;;;;;;;;;;40.36;35.93;100504.97;4889565;28;101274;-78
2023/08/09 11:26:45;;;;;;;;;;;;;;;40.10;36.27;100503.72;4903116;28;98162;-77
2023/08/09 11:29:13;;;;;;;;;;;;;;;39.76;36.61;100502.75;4898594;28;98752;-79
2023/08/09 11:31:42;;;;;;;;;;;;;;;39.46;36.80;100499.56;4900805;28;98641;-68
2023/08/09 11:34:12;;;;;;;;;;;;;;;38.96;37.49;100495.91;4921120;28;101248;-78
2023/08/09 11:36:41;;;;;;;;;;;;;;;38.69;37.56;100498.56;4918815;28;97984;-68
2023/08/09 11:39:12;;;;;;;;;;;;;;;38.48;37.68;100511.44;4866838;28;98275;-68
2023/08/09 11:41:44;;;;;;;;;;;;;;;37.95;38.41;100503.63;4890179;28;98456;-78
2023/08/09 11:44:13;;;;;;;;;;;;;;;37.70;38.46;100515.72;4918419;28;99966;-68
2023/08/09 11:46:45;;;;;;;;;;;;;;;38.13;37.75;100522.69;4869381;28;98980;-79
2023/08/09 11:49:12;;;;;;;;;;;;;;;37.99;38.24;100518.34;4868307;28;99022;-68
2023/08/09 11:51:39;;;;;;;;;;;;;;;37.50;38.59;100529.25;4886030;28;98485;-68
2023/08/09 11:54:10;;;;;;;;;;;;;;;37.57;37.87;100527.00;4882809;28;98394;-78
2023/08/09 11:56:37;;;;;;;;;;;;;;;37.52;37.87;100532.38;4898610;28;98154;-68
2023/08/09 11:59:05;;;;;;;;;;;;;;;37.65;37.89;100535.16;4865401;28;98124;-68
2023/08/09 12:01:35;;;;;;;;;;;;;;;37.72;37.84;100530.09;4863414;28;98216;-68
2023/08/09 12:04:11;;;;;;;;;;;;;;;37.72;38.20;100534.94;4911979;28;98316;-79
2023/08/09 12:06:49;;;;;;;;;;;;;;;37.76;37.95;100536.38;4918579;28;98234;-68
2023/08/09 12:09:30;;;;;;;;;;;;;;;37.96;38.04;100522.06;4920968;28;98856;-68
2023/08/09 12:12:07;;;;;;;;;;;;;;;37.54;38.46;100544.75;4931613;28;98521;-68
2023/08/09 12:14:38;;;;;;;;;;;;;;;37.93;37.63;100542.69;4918048;28;101007;-79
2023/08/09 12:17:07;;;;;;;;;;;;;;;37.70;38.01;100545.84;4903027;28;99465;-77
2023/08/09 12:19:36;;;;;;;;;;;;;;;36.40;39.55;100539.69;4865390;28;98515;-77
2023/08/09 12:22:04;;;;;;;;;;;;;;;35.63;39.91;100544.06;4916180;28;102139;-77
2023/08/09 12:24:31;;;;;;;;;;;;;;;34.78;40.85;100536.34;4885796;28;98585;-66
2023/08/09 12:26:58;;;;;;;;;;;;;;;33.56;41.55;100540.47;4916313;28;98735;-76
2023/08/09 12:29:28;;;;;;;;;;;;;;;32.57;42.49;100539.78;4915520;28;98270;-66
2023/08/09 12:31:55;;;;;;;;;;;;;;;31.74;42.70;100534.94;4912613;28;98467;-69
2023/08/09 12:34:22;;;;;;;;;;;;;;;32.33;41.17;100536.81;4914718;28;99005;-79
2023/08/09 12:36:49;;;;;;;;;;;;;;;31.12;42.70;100541.28;4897799;28;99833;-79
2023/08/09 12:39:16;;;;;;;;;;;;;;;31.77;41.52;100544.47;4886822;28;98132;-79
2023/08/09 12:41:45;;;;;;;;;;;;;;;32.49;40.62;100548.22;4906109;28;98198;-66